Time;durP1;ratioP1;P1;durP2;ratioP2;P2;SDS_P1;SDS_P2;PMS_P1;PMS_P2;Temp;Humidity;BMP_temperature;BMP_pressure;BME280_temperature;BME280_humidity;BME280_pressure;Samples;Min_cycle;Max_cycle;Signal;HPM_P1;HPM_P2
2022/07/02 00:00:05;;;;;;;12.70;4.97;;;13.00;99.90;;;;;;5029208;28;20033;-87
2022/07/02 00:02:36;;;;;;;6.85;4.70;;;13.00;99.90;;;;;;5032840;28;20056;-88
2022/07/02 00:05:06;;;;;;;8.13;4.80;;;13.00;99.90;;;;;;5024229;28;20022;-88
2022/07/02 00:07:33;;;;;;;8.73;4.60;;;12.90;99.90;;;;;;5031410;28;20488;-88
2022/07/02 00:09:59;;;;;;;7.32;4.45;;;12.90;99.90;;;;;;5030551;28;20039;-88
2022/07/02 00:12:27;;;;;;;5.75;4.28;;;12.90;99.90;;;;;;5031890;28;20481;-89
2022/07/02 00:14:57;;;;;;;8.25;4.88;;;12.90;99.90;;;;;;5031782;28;20041;-89
2022/07/02 00:17:23;;;;;;;9.80;5.85;;;12.90;99.90;;;;;;5028794;28;20108;-87
2022/07/02 00:19:51;;;;;;;7.30;5.15;;;12.80;99.90;;;;;;5031812;28;20552;-88
2022/07/02 00:22:17;;;;;;;8.63;5.40;;;12.90;99.90;;;;;;5022453;28;20045;-88
2022/07/02 00:24:43;;;;;;;5.95;4.90;;;12.90;99.90;;;;;;5034831;28;20017;-87
2022/07/02 00:27:14;;;;;;;6.47;4.75;;;12.80;99.90;;;;;;5032183;28;20025;-88
2022/07/02 00:30:01;;;;;;;9.10;4.25;;;12.80;99.90;;;;;;5031271;28;20079;-87
2022/07/02 00:32:28;;;;;;;6.80;4.63;;;12.90;99.90;;;;;;5028082;28;20025;-87
2022/07/02 00:34:57;;;;;;;6.60;4.97;;;12.80;99.90;;;;;;5035152;28;20505;-88
2022/07/02 00:37:27;;;;;;;7.65;4.90;;;12.80;99.90;;;;;;5031115;28;20412;-87
2022/07/02 00:39:53;;;;;;;7.53;5.03;;;12.80;99.90;;;;;;5032846;28;20431;-88
2022/07/02 00:42:20;;;;;;;7.32;4.75;;;12.80;99.90;;;;;;5031435;28;20041;-88
2022/07/02 00:44:47;;;;;;;8.95;5.75;;;12.80;99.90;;;;;;5032177;28;20090;-87
2022/07/02 00:47:14;;;;;;;7.13;5.10;;;12.80;99.90;;;;;;5041942;28;20030;-89
2022/07/02 00:49:39;;;;;;;6.75;5.15;;;12.70;99.90;;;;;;5033684;28;20044;-88
2022/07/02 00:52:06;;;;;;;10.00;5.20;;;12.70;99.90;;;;;;5026333;28;20119;-88
2022/07/02 00:54:32;;;;;;;6.45;5.20;;;12.70;99.90;;;;;;5034692;28;20033;-88
2022/07/02 00:56:57;;;;;;;6.72;5.10;;;12.70;99.90;;;;;;5032646;28;20030;-88
2022/07/02 00:59:25;;;;;;;9.82;5.20;;;12.70;99.90;;;;;;5031717;28;20418;-88
2022/07/02 01:01:51;;;;;;;7.97;5.38;;;12.60;99.90;;;;;;5034543;28;20072;-87
2022/07/02 01:04:17;;;;;;;6.63;5.28;;;12.60;99.90;;;;;;5030864;28;20052;-88
2022/07/02 01:06:44;;;;;;;8.68;4.97;;;12.60;99.90;;;;;;5032741;28;20025;-88
2022/07/02 01:11:59;;;;;;;7.75;5.35;;;12.60;99.90;;;;;;5046063;28;20504;-87
2022/07/02 01:14:26;;;;;;;8.80;5.30;;;12.50;99.90;;;;;;5031860;28;20058;-87
2022/07/02 01:16:51;;;;;;;8.23;5.75;;;12.60;99.90;;;;;;5024360;28;20037;-88
2022/07/02 01:19:19;;;;;;;10.23;5.90;;;12.50;99.90;;;;;;5027000;28;20033;-88
2022/07/02 01:22:14;;;;;;;9.13;5.28;;;12.50;99.90;;;;;;5032628;28;20037;-89
2022/07/02 01:24:40;;;;;;;15.35;6.85;;;12.50;99.90;;;;;;5040216;28;20032;-88
2022/07/02 01:27:06;;;;;;;8.82;5.82;;;12.50;99.90;;;;;;5034312;28;20033;-88
2022/07/02 01:29:32;;;;;;;10.45;6.18;;;12.40;99.90;;;;;;5035709;28;20029;-88
2022/07/02 01:31:57;;;;;;;9.68;5.65;;;12.40;99.90;;;;;;5035353;28;20405;-88
2022/07/02 01:34:23;;;;;;;9.32;6.15;;;12.40;99.90;;;;;;5033401;28;20037;-90
2022/07/02 01:36:49;;;;;;;8.63;5.15;;;12.40;99.90;;;;;;5028774;28;20045;-89
2022/07/02 01:39:15;;;;;;;8.82;6.18;;;12.40;99.90;;;;;;5033579;28;20036;-90
2022/07/02 01:41:41;;;;;;;12.90;6.82;;;12.30;99.90;;;;;;5035770;28;20040;-89
2022/07/02 01:44:09;;;;;;;8.65;6.32;;;12.30;99.90;;;;;;5034902;28;20028;-86
2022/07/02 01:46:36;;;;;;;10.52;6.00;;;12.30;99.90;;;;;;5038958;28;20032;-86
2022/07/02 01:49:02;;;;;;;8.95;6.53;;;12.30;99.90;;;;;;5036046;28;20039;-87
2022/07/02 01:51:28;;;;;;;10.35;5.55;;;12.30;99.90;;;;;;5033161;28;20025;-89
2022/07/02 01:53:53;;;;;;;9.73;5.95;;;12.30;99.90;;;;;;5038132;28;20094;-90
2022/07/02 01:56:19;;;;;;;9.90;6.15;;;12.30;99.90;;;;;;5036545;28;20071;-89
2022/07/02 01:58:45;;;;;;;6.57;4.97;;;12.30;99.90;;;;;;5032527;28;20116;-89
2022/07/02 02:01:10;;;;;;;7.70;5.00;;;12.30;99.90;;;;;;5033568;28;20404;-89
2022/07/02 02:03:37;;;;;;;12.02;6.13;;;12.30;99.90;;;;;;5034286;28;20500;-89
2022/07/02 02:06:02;;;;;;;7.07;4.90;;;12.20;99.90;;;;;;5035333;28;20060;-89
2022/07/02 02:08:28;;;;;;;7.50;4.97;;;12.20;99.90;;;;;;5050728;28;20049;-89
2022/07/02 02:10:54;;;;;;;7.63;5.45;;;12.20;99.90;;;;;;5032595;28;20029;-88
2022/07/02 02:13:19;;;;;;;10.95;5.72;;;12.20;99.90;;;;;;5023946;28;20029;-88
2022/07/02 02:15:45;;;;;;;8.05;5.60;;;12.20;99.90;;;;;;5030034;28;20388;-88
2022/07/02 02:18:10;;;;;;;7.78;5.57;;;12.20;99.90;;;;;;5024560;28;20039;-89
2022/07/02 02:20:36;;;;;;;8.80;5.95;;;12.20;99.90;;;;;;5034421;28;20166;-90
2022/07/02 02:23:04;;;;;;;12.77;6.43;;;12.10;99.90;;;;;;5025897;28;20124;-90
2022/07/02 02:25:31;;;;;;;9.93;5.32;;;12.10;99.90;;;;;;5035991;28;20025;-90
2022/07/02 02:27:57;;;;;;;9.68;6.15;;;12.00;99.90;;;;;;5035625;28;20087;-89
2022/07/02 02:30:22;;;;;;;7.22;5.40;;;12.00;99.90;;;;;;5035360;28;20033;-90
2022/07/02 02:32:48;;;;;;;10.50;5.78;;;12.00;99.90;;;;;;5034448;28;20033;-89
2022/07/02 02:35:13;;;;;;;8.30;5.32;;;11.90;99.90;;;;;;5034444;28;20124;-88
2022/07/02 02:37:39;;;;;;;9.27;5.38;;;11.90;99.90;;;;;;5032560;28;20144;-89
2022/07/02 02:40:05;;;;;;;8.57;5.35;;;11.90;99.90;;;;;;5030948;28;20021;-88
2022/07/02 02:42:31;;;;;;;10.43;5.50;;;11.90;99.90;;;;;;5034607;28;20041;-90
2022/07/02 02:44:56;;;;;;;8.95;5.50;;;11.90;99.90;;;;;;5034098;28;20576;-90
2022/07/02 02:47:23;;;;;;;10.93;5.22;;;11.90;99.90;;;;;;5033397;28;20056;-89
2022/07/02 02:49:48;;;;;;;9.52;4.97;;;11.90;99.90;;;;;;5034559;28;20020;-89
2022/07/02 02:52:14;;;;;;;7.55;5.00;;;11.90;99.90;;;;;;5033510;28;20033;-90
2022/07/02 02:54:39;;;;;;;8.80;5.80;;;11.90;99.90;;;;;;5033600;28;20151;-90
2022/07/02 02:57:05;;;;;;;9.63;5.78;;;11.90;99.90;;;;;;5044125;28;20159;-89
2022/07/02 02:59:31;;;;;;;14.32;5.68;;;11.90;99.90;;;;;;5017943;28;20186;-89
2022/07/02 03:01:56;;;;;;;5.95;4.80;;;11.90;99.90;;;;;;5048048;28;20594;-89
2022/07/02 03:04:22;;;;;;;8.70;5.03;;;11.90;99.90;;;;;;5032649;28;20485;-90
2022/07/02 03:06:47;;;;;;;11.60;5.80;;;12.00;99.90;;;;;;5028874;28;20064;-89
2022/07/02 03:09:13;;;;;;;7.93;4.70;;;12.00;99.90;;;;;;5030596;28;20033;-89
2022/07/02 03:11:39;;;;;;;8.68;4.80;;;12.00;99.90;;;;;;5033857;28;20032;-88
2022/07/02 03:14:04;;;;;;;10.73;5.40;;;12.10;99.90;;;;;;5027696;28;20025;-88
2022/07/02 03:16:30;;;;;;;10.55;5.40;;;12.10;99.90;;;;;;5041408;28;20028;-89
2022/07/02 03:18:55;;;;;;;6.43;5.22;;;12.20;99.90;;;;;;5030823;28;20029;-89
2022/07/02 03:21:21;;;;;;;8.25;5.22;;;12.30;99.90;;;;;;5031758;28;20480;-89
2022/07/02 03:23:46;;;;;;;10.77;5.30;;;12.40;99.90;;;;;;5031839;28;20891;-88
2022/07/02 03:26:12;;;;;;;10.75;5.15;;;12.40;99.90;;;;;;5065061;28;20048;-89
2022/07/02 03:28:37;;;;;;;6.85;4.50;;;12.50;99.90;;;;;;5047073;28;20028;-89
2022/07/02 03:31:03;;;;;;;11.65;4.68;;;12.50;99.90;;;;;;5034520;28;20115;-89
2022/07/02 03:33:29;;;;;;;10.30;5.50;;;12.60;99.90;;;;;;5033354;28;20029;-89
2022/07/02 03:35:54;;;;;;;8.40;5.15;;;12.60;99.90;;;;;;5031171;28;20025;-89
2022/07/02 03:38:20;;;;;;;7.10;4.65;;;12.60;99.90;;;;;;5032846;28;20021;-89
2022/07/02 03:40:45;;;;;;;12.15;5.80;;;12.60;99.90;;;;;;5028641;28;20032;-89
2022/07/02 03:43:11;;;;;;;10.38;4.72;;;12.50;99.90;;;;;;5048387;28;20044;-89
2022/07/02 03:45:37;;;;;;;11.45;4.82;;;12.50;99.90;;;;;;5032516;28;20040;-90
2022/07/02 03:48:03;;;;;;;7.72;5.00;;;12.50;99.90;;;;;;5033579;28;20037;-90
2022/07/02 03:50:29;;;;;;;9.80;5.28;;;12.50;99.90;;;;;;5030935;28;20025;-89
2022/07/02 03:52:54;;;;;;;7.97;4.30;;;12.50;99.90;;;;;;5031589;28;20056;-89
2022/07/02 03:55:20;;;;;;;7.93;4.40;;;12.50;99.90;;;;;;5032814;28;20076;-88
2022/07/02 03:57:45;;;;;;;10.20;4.85;;;12.50;99.90;;;;;;5033710;28;20028;-89
2022/07/02 04:00:11;;;;;;;8.77;4.57;;;12.50;99.90;;;;;;5033990;28;20112;-90
2022/07/02 04:02:37;;;;;;;7.07;4.78;;;12.50;99.90;;;;;;5033017;28;20033;-90
2022/07/02 04:05:03;;;;;;;8.32;4.47;;;12.50;99.90;;;;;;5033940;28;20024;-89
2022/07/02 04:07:28;;;;;;;8.93;4.68;;;12.50;99.90;;;;;;5036169;28;20040;-88
2022/07/02 04:09:54;;;;;;;10.80;4.32;;;12.50;99.90;;;;;;5035210;28;20071;-88
2022/07/02 04:12:19;;;;;;;8.70;5.18;;;12.50;99.90;;;;;;5032257;28;20074;-88
2022/07/02 04:14:45;;;;;;;9.93;4.90;;;12.60;99.90;;;;;;5031565;28;20028;-88
2022/07/02 04:17:10;;;;;;;12.35;4.38;;;12.60;99.90;;;;;;5033707;28;20025;-88
2022/07/02 04:19:36;;;;;;;8.27;5.07;;;12.70;99.90;;;;;;5034145;28;20029;-88
2022/07/02 04:22:01;;;;;;;7.45;4.20;;;12.90;99.90;;;;;;5032838;28;20382;-88
2022/07/02 04:24:30;;;;;;;9.23;4.30;;;13.00;99.90;;;;;;5029272;28;20051;-88
2022/07/02 04:26:56;;;;;;;8.73;4.13;;;13.10;99.90;;;;;;5033930;28;20036;-88
2022/07/02 04:29:22;;;;;;;7.20;4.10;;;13.20;99.90;;;;;;5033452;28;20044;-89
2022/07/02 04:31:48;;;;;;;9.30;3.78;;;13.30;99.90;;;;;;5033466;28;20029;-89
2022/07/02 04:34:13;;;;;;;7.93;4.00;;;13.40;99.90;;;;;;5030415;28;20026;-89
2022/07/02 04:36:39;;;;;;;8.60;4.22;;;13.50;99.90;;;;;;5032050;28;20579;-89
2022/07/02 04:39:05;;;;;;;11.30;4.50;;;13.60;99.90;;;;;;5032301;28;20393;-88
2022/07/02 04:41:31;;;;;;;7.57;3.25;;;13.60;99.90;;;;;;5033393;28;20249;-89
2022/07/02 04:43:57;;;;;;;10.25;3.63;;;13.70;99.90;;;;;;5030631;28;20028;-89
2022/07/02 04:46:23;;;;;;;6.10;3.58;;;13.80;99.90;;;;;;5036883;28;20021;-89
2022/07/02 04:48:48;;;;;;;8.75;4.32;;;13.80;99.90;;;;;;5036882;28;20067;-88
2022/07/02 04:51:14;;;;;;;7.05;3.20;;;13.90;99.90;;;;;;5042836;28;20033;-87
2022/07/02 04:53:39;;;;;;;7.03;3.38;;;14.00;99.90;;;;;;5037174;28;20358;-87
2022/07/02 04:56:05;;;;;;;8.98;3.67;;;14.10;99.90;;;;;;5036560;28;20035;-88
2022/07/02 04:58:30;;;;;;;5.47;2.88;;;14.30;99.90;;;;;;5037746;28;20040;-87
2022/07/02 05:00:56;;;;;;;6.00;2.55;;;14.60;99.90;;;;;;5036477;28;20021;-87
2022/07/02 05:03:21;;;;;;;5.68;1.92;;;15.10;99.90;;;;;;5034543;28;20033;-87
2022/07/02 05:05:47;;;;;;;5.25;2.60;;;15.40;99.90;;;;;;5036260;28;20027;-86
2022/07/02 05:08:13;;;;;;;6.63;2.60;;;15.40;99.90;;;;;;5034063;28;20033;-87
2022/07/02 05:10:39;;;;;;;5.65;2.83;;;15.40;99.90;;;;;;5031326;28;20058;-87
2022/07/02 05:13:04;;;;;;;5.70;2.97;;;15.30;99.90;;;;;;5034187;28;20489;-87
2022/07/02 05:15:30;;;;;;;5.68;2.88;;;15.50;99.90;;;;;;5026853;28;20025;-89
2022/07/02 05:17:56;;;;;;;5.38;2.10;;;15.90;99.90;;;;;;5036221;28;20041;-87
2022/07/02 05:20:21;;;;;;;3.35;1.50;;;16.40;99.90;;;;;;5037121;28;20037;-87
2022/07/02 05:22:47;;;;;;;4.70;1.38;;;17.00;99.90;;;;;;5033333;28;20584;-88
2022/07/02 05:25:13;;;;;;;3.75;1.38;;;17.40;99.90;;;;;;5035589;28;20029;-88
2022/07/02 05:27:38;;;;;;;3.70;1.17;;;17.80;99.90;;;;;;5031303;28;20035;-87
2022/07/02 05:30:04;;;;;;;5.75;1.73;;;18.10;99.90;;;;;;5027927;28;20428;-88
2022/07/02 05:32:30;;;;;;;2.97;1.50;;;18.30;99.90;;;;;;5035027;28;20021;-88
2022/07/02 05:34:55;;;;;;;4.97;1.20;;;18.30;99.90;;;;;;5028406;28;20044;-88
2022/07/02 05:37:21;;;;;;;6.75;1.58;;;18.30;99.90;;;;;;5034642;28;20057;-87
2022/07/02 05:39:47;;;;;;;4.65;0.93;;;18.50;99.90;;;;;;5031696;28;20024;-87
2022/07/02 05:42:12;;;;;;;5.07;1.30;;;18.50;99.90;;;;;;5036808;28;20047;-89
2022/07/02 05:44:38;;;;;;;7.15;1.30;;;18.40;99.90;;;;;;5026677;28;20024;-89
2022/07/02 05:47:04;;;;;;;3.58;1.20;;;18.30;99.90;;;;;;5022413;28;20124;-88
2022/07/02 05:49:29;;;;;;;6.07;1.20;;;18.20;99.90;;;;;;5029338;28;20040;-88
2022/07/02 05:51:55;;;;;;;4.70;1.50;;;18.20;99.90;;;;;;5036546;28;20118;-87
2022/07/02 05:54:20;;;;;;;4.78;0.82;;;18.20;99.90;;;;;;5036100;28;20029;-88
2022/07/02 05:56:46;;;;;;;3.45;1.02;;;18.10;99.90;;;;;;5036078;28;20063;-87
2022/07/02 05:59:11;;;;;;;3.35;1.17;;;18.10;99.90;;;;;;5035767;28;20028;-87
2022/07/02 06:01:37;;;;;;;5.68;1.13;;;18.20;99.90;;;;;;5035948;28;20036;-87
2022/07/02 06:04:03;;;;;;;3.45;1.00;;;18.30;99.90;;;;;;5036586;28;20017;-89
2022/07/02 06:09:23;;;;;;;3.72;0.73;;;18.40;99.90;;;;;;5000345;28;20125;-89
2022/07/02 06:11:48;;;;;;;3.65;0.90;;;18.60;99.90;;;;;;5034165;28;20029;-88
2022/07/02 06:14:14;;;;;;;3.22;0.70;;;18.70;99.90;;;;;;5028039;28;20036;-89
2022/07/02 06:16:40;;;;;;;2.80;1.20;;;18.80;99.90;;;;;;5034975;28;20031;-87
2022/07/02 06:19:06;;;;;;;2.90;0.73;;;18.90;99.90;;;;;;5034653;28;20090;-88
2022/07/02 06:21:32;;;;;;;2.78;0.52;;;18.90;99.90;;;;;;5034481;28;20033;-89
2022/07/02 06:23:58;;;;;;;2.55;0.50;;;19.00;99.90;;;;;;5033411;28;20029;-88
2022/07/02 06:26:24;;;;;;;5.53;0.50;;;19.10;99.90;;;;;;5037945;28;20036;-87
2022/07/02 06:28:49;;;;;;;3.15;0.50;;;19.10;99.90;;;;;;5029780;28;20022;-86
2022/07/02 06:31:15;;;;;;;1.83;0.40;;;19.20;99.90;;;;;;5016192;28;20022;-88
2022/07/02 06:33:41;;;;;;;4.35;0.70;;;19.30;99.90;;;;;;5029043;28;20511;-88
2022/07/02 06:36:10;;;;;;;1.95;0.45;;;19.30;99.90;;;;;;5030077;28;20049;-88
2022/07/02 06:38:37;;;;;;;1.83;0.57;;;19.30;99.90;;;;;;5031930;28;20120;-88
2022/07/02 06:42:18;;;;;;;2.42;0.40;;;19.50;99.90;;;;;;5028549;28;20013;-88
2022/07/02 06:43:49;;;;;;;1.55;0.40;;;19.50;99.90;;;;;;5025321;28;20033;-88
2022/07/02 06:46:14;;;;;;;1.45;0.30;;;19.70;99.80;;;;;;5031068;28;20116;-85
2022/07/02 06:48:40;;;;;;;2.17;0.43;;;19.80;99.00;;;;;;5026475;28;20045;-85
2022/07/02 06:51:05;;;;;;;1.50;0.30;;;19.90;98.60;;;;;;5028032;28;20394;-86
2022/07/02 06:53:31;;;;;;;2.05;0.30;;;20.20;98.00;;;;;;5019864;28;20060;-86
2022/07/02 06:55:56;;;;;;;1.10;0.30;;;20.30;97.30;;;;;;5030255;28;20029;-86
2022/07/02 06:58:22;;;;;;;0.82;0.30;;;20.50;96.70;;;;;;5028121;28;20069;-86
2022/07/02 07:00:47;;;;;;;3.20;0.30;;;20.70;95.70;;;;;;5023271;28;20048;-85
2022/07/02 07:03:13;;;;;;;1.98;0.30;;;20.70;94.60;;;;;;5028943;28;20045;-84
2022/07/02 07:05:39;;;;;;;1.83;0.45;;;20.80;94.30;;;;;;5030847;28;20025;-91
2022/07/02 07:08:05;;;;;;;1.83;0.30;;;20.80;93.60;;;;;;5026256;28;20038;-92
2022/07/02 07:10:31;;;;;;;4.30;0.30;;;20.60;93.30;;;;;;5028679;28;20108;-91
2022/07/02 07:12:57;;;;;;;1.80;0.20;;;20.40;92.70;;;;;;5027657;28;20416;-91
2022/07/02 07:15:23;;;;;;;2.03;0.63;;;20.30;92.70;;;;;;5024882;28;20477;-90
2022/07/02 07:17:48;;;;;;;2.13;0.20;;;20.30;92.10;;;;;;5018325;28;20359;-90
2022/07/02 07:20:17;;;;;;;0.60;0.10;;;20.30;91.80;;;;;;5026741;28;20116;-91
2022/07/02 07:22:44;;;;;;;1.52;0.15;;;20.30;91.60;;;;;;5031435;28;20037;-91
2022/07/02 07:25:09;;;;;;;0.50;0.20;;;20.20;91.30;;;;;;5031521;28;20029;-90
2022/07/02 07:27:35;;;;;;;1.05;0.25;;;20.30;91.40;;;;;;5026012;28;20032;-91
2022/07/02 07:30:00;;;;;;;2.20;0.20;;;20.30;90.80;;;;;;5031364;28;20478;-90
2022/07/02 07:32:26;;;;;;;1.73;0.25;;;20.30;90.50;;;;;;5028095;28;20087;-91
2022/07/02 07:34:51;;;;;;;1.75;0.20;;;20.40;90.20;;;;;;5028211;28;20026;-91
2022/07/02 07:37:17;;;;;;;1.95;0.20;;;20.40;90.10;;;;;;5022424;28;20056;-89
2022/07/02 07:39:42;;;;;;;1.45;0.20;;;20.50;90.00;;;;;;5027189;28;20029;-91
2022/07/02 07:42:08;;;;;;;2.00;0.20;;;20.50;89.40;;;;;;5025653;28;20069;-90
2022/07/02 07:44:34;;;;;;;1.48;0.10;;;20.50;89.30;;;;;;5032107;28;20025;-91
2022/07/02 07:46:59;;;;;;;1.05;0.20;;;20.70;88.80;;;;;;5031074;28;20466;-92
2022/07/02 07:49:25;;;;;;;1.55;0.20;;;20.70;87.80;;;;;;5028324;28;20018;-90
2022/07/02 07:51:51;;;;;;;1.15;0.50;;;20.70;87.20;;;;;;5027654;28;20099;-90
2022/07/02 07:54:16;;;;;;;1.40;0.30;;;20.70;86.70;;;;;;5041424;28;20039;-90
2022/07/02 07:56:43;;;;;;;0.98;0.10;;;20.60;86.60;;;;;;5034207;28;20040;-92
2022/07/02 07:59:08;;;;;;;0.85;0.10;;;20.50;87.40;;;;;;5030728;28;20030;-89
2022/07/02 08:01:34;;;;;;;3.05;0.30;;;20.60;87.60;;;;;;5031283;28;20041;-91
2022/07/02 08:04:00;;;;;;;2.45;0.20;;;20.70;87.70;;;;;;5029659;28;20355;-90
2022/07/02 08:06:25;;;;;;;2.55;0.17;;;20.80;87.90;;;;;;5026399;28;20032;-90
2022/07/02 08:08:51;;;;;;;1.10;0.20;;;20.90;88.50;;;;;;5030183;28;20030;-90
2022/07/02 08:11:16;;;;;;;2.25;0.10;;;21.00;87.30;;;;;;5030843;28;20029;-91
2022/07/02 08:13:42;;;;;;;2.88;0.20;;;21.10;87.30;;;;;;5026263;28;20370;-89
2022/07/02 08:16:07;;;;;;;3.10;0.20;;;21.20;87.00;;;;;;5029852;28;20382;-90
2022/07/02 08:18:33;;;;;;;1.52;0.20;;;21.30;87.00;;;;;;5030893;28;20022;-90
2022/07/02 08:21:00;;;;;;;1.17;0.20;;;21.30;86.80;;;;;;5027868;28;20461;-91
2022/07/02 08:23:26;;;;;;;2.85;0.40;;;21.40;86.80;;;;;;5034507;28;20052;-90
2022/07/02 08:25:54;;;;;;;1.08;0.20;;;21.50;86.60;;;;;;5035302;28;20116;-91
2022/07/02 08:28:20;;;;;;;2.90;0.20;;;21.60;86.20;;;;;;5033520;28;20470;-90
2022/07/02 08:30:46;;;;;;;1.92;0.40;;;21.60;85.80;;;;;;5035468;28;20030;-90
2022/07/02 08:33:14;;;;;;;2.60;0.22;;;21.80;84.70;;;;;;5034607;28;20083;-91
2022/07/02 08:35:39;;;;;;;3.80;0.20;;;21.80;84.40;;;;;;5035082;28;20057;-89
2022/07/02 08:38:05;;;;;;;1.90;0.40;;;21.80;84.70;;;;;;5038433;28;20440;-90
2022/07/02 08:40:31;;;;;;;1.38;0.25;;;21.90;84.50;;;;;;5037105;28;20064;-89
2022/07/02 08:42:59;;;;;;;2.17;0.20;;;22.00;84.70;;;;;;5034755;28;20040;-89
2022/07/02 08:45:29;;;;;;;2.13;0.30;;;22.10;84.30;;;;;;5037253;28;20079;-92
2022/07/02 08:47:55;;;;;;;1.55;0.20;;;22.20;83.60;;;;;;5042435;28;20048;-91
2022/07/02 08:50:23;;;;;;;9.70;0.47;;;22.10;83.50;;;;;;5035960;28;20029;-90
2022/07/02 08:52:51;;;;;;;2.22;0.17;;;22.20;84.60;;;;;;5037964;28;20469;-91
2022/07/02 08:55:18;;;;;;;2.42;0.40;;;22.20;84.60;;;;;;5036632;28;20028;-90
2022/07/02 08:57:44;;;;;;;1.45;0.20;;;22.30;84.50;;;;;;5038235;28;20611;-89
2022/07/02 09:00:10;;;;;;;1.92;0.50;;;22.30;83.90;;;;;;5036908;28;20477;-90
2022/07/02 09:02:37;;;;;;;2.25;0.20;;;22.40;83.30;;;;;;5033707;28;20037;-88
2022/07/02 09:05:03;;;;;;;2.15;0.20;;;22.50;83.30;;;;;;5037434;28;20546;-88
2022/07/02 09:07:29;;;;;;;1.92;0.22;;;22.50;83.20;;;;;;5036962;28;20477;-89
2022/07/02 09:09:57;;;;;;;4.10;0.20;;;22.60;81.50;;;;;;5036497;28;20036;-89
2022/07/02 09:12:25;;;;;;;2.05;0.20;;;22.60;82.50;;;;;;5032570;28;20065;-88
2022/07/02 09:14:51;;;;;;;2.45;0.20;;;22.60;82.00;;;;;;5037596;28;20021;-90
2022/07/02 09:17:16;;;;;;;2.42;0.20;;;22.70;81.70;;;;;;5018770;28;20036;-89
2022/07/02 09:19:42;;;;;;;1.33;0.20;;;22.70;81.80;;;;;;5055062;28;20046;-89
2022/07/02 09:22:08;;;;;;;3.30;0.20;;;22.70;81.10;;;;;;5036244;28;20041;-88
2022/07/02 09:24:39;;;;;;;2.47;0.20;;;22.70;81.70;;;;;;5035905;28;20049;-89
2022/07/02 09:27:10;;;;;;;3.17;0.20;;;22.80;80.70;;;;;;5035021;28;20025;-89
2022/07/02 09:29:45;;;;;;;1.35;0.20;;;22.80;80.30;;;;;;5037133;28;20033;-88
2022/07/02 09:32:11;;;;;;;3.80;0.20;;;22.90;81.10;;;;;;5033172;28;20037;-90
2022/07/02 09:34:49;;;;;;;2.50;0.20;;;22.90;81.90;;;;;;5036636;28;20035;-89
2022/07/02 09:37:25;;;;;;;2.38;0.32;;;23.00;81.10;;;;;;5044745;28;20059;-88
2022/07/02 09:39:52;;;;;;;3.28;0.40;;;23.10;80.50;;;;;;5025368;28;20029;-88
2022/07/02 09:42:32;;;;;;;3.45;0.20;;;23.20;81.10;;;;;;5027269;28;20084;-89
2022/07/02 09:44:59;;;;;;;2.63;0.30;;;23.30;79.90;;;;;;5042117;28;20021;-89
2022/07/02 09:47:37;;;;;;;2.55;0.30;;;23.20;80.10;;;;;;5032483;28;20021;-88
2022/07/02 09:50:07;;;;;;;2.45;0.20;;;23.30;79.40;;;;;;5031838;28;20033;-90
2022/07/02 09:52:33;;;;;;;2.22;0.30;;;23.30;79.20;;;;;;5033508;28;20017;-89
2022/07/02 09:54:59;;;;;;;1.90;0.40;;;23.30;79.30;;;;;;5033422;28;20511;-88
2022/07/02 09:57:26;;;;;;;1.52;0.30;;;23.40;78.90;;;;;;5031520;28;20021;-90
2022/07/02 09:59:52;;;;;;;2.50;0.47;;;23.40;78.00;;;;;;5038555;28;20032;-89
2022/07/02 10:02:22;;;;;;;2.38;0.30;;;23.40;78.60;;;;;;5036454;28;20043;-89
2022/07/02 10:04:52;;;;;;;3.40;0.30;;;23.50;79.00;;;;;;5047201;28;20049;-90
2022/07/02 10:07:22;;;;;;;1.77;0.30;;;23.60;78.50;;;;;;5029925;28;20049;-89
2022/07/02 10:09:52;;;;;;;4.43;0.38;;;23.70;79.40;;;;;;5034926;28;20461;-88
2022/07/02 10:12:19;;;;;;;3.95;0.32;;;23.90;78.70;;;;;;5039371;28;20041;-88
2022/07/02 10:14:46;;;;;;;3.63;0.20;;;24.10;78.30;;;;;;5045501;28;20115;-89
2022/07/02 10:17:14;;;;;;;0.65;0.10;;;24.20;77.70;;;;;;5030623;28;20033;-88
2022/07/02 10:19:39;;;;;;;2.20;0.40;;;24.30;77.00;;;;;;5036295;28;20032;-88
2022/07/02 10:22:06;;;;;;;2.13;0.22;;;24.40;76.10;;;;;;5035616;28;20572;-89
2022/07/02 10:24:33;;;;;;;1.10;0.20;;;24.40;75.80;;;;;;5036346;28;20484;-89
2022/07/02 10:27:00;;;;;;;1.35;0.10;;;24.40;75.40;;;;;;5038757;28;20040;-89
2022/07/02 10:29:26;;;;;;;1.67;0.20;;;24.50;74.90;;;;;;5036324;28;20056;-89
2022/07/02 10:32:04;;;;;;;1.50;0.25;;;24.40;74.30;;;;;;5035661;28;20036;-88
2022/07/02 10:34:54;;;;;;;1.80;0.20;;;24.50;73.20;;;;;;5034866;28;20021;-89
2022/07/02 10:37:21;;;;;;;1.35;0.20;;;24.50;73.00;;;;;;5018832;28;20067;-89
2022/07/02 10:39:46;;;;;;;3.58;0.20;;;24.50;72.60;;;;;;5052521;28;20128;-89
2022/07/02 10:42:12;;;;;;;1.17;0.10;;;24.60;72.70;;;;;;5053813;28;20531;-89
2022/07/02 10:44:38;;;;;;;3.40;0.30;;;24.70;72.10;;;;;;5036744;28;20028;-89
2022/07/02 10:47:05;;;;;;;1.52;0.28;;;24.70;72.10;;;;;;5035189;28;20035;-89
2022/07/02 10:49:32;;;;;;;1.05;0.20;;;24.80;71.70;;;;;;5031811;28;20033;-90
2022/07/02 10:51:58;;;;;;;2.15;0.10;;;24.80;71.10;;;;;;5030031;28;20551;-88
2022/07/02 10:54:31;;;;;;;1.65;0.30;;;24.80;71.80;;;;;;5031800;28;20029;-88
2022/07/02 10:56:57;;;;;;;2.55;0.30;;;24.80;71.10;;;;;;5041383;28;20025;-89
2022/07/02 10:59:37;;;;;;;4.30;0.30;;;24.70;70.90;;;;;;5029963;28;20083;-90
2022/07/02 11:02:08;;;;;;;3.55;0.30;;;24.70;70.50;;;;;;5030582;28;20105;-89
2022/07/02 11:04:35;;;;;;;1.92;0.30;;;24.70;71.40;;;;;;5031073;28;20116;-89
2022/07/02 11:07:19;;;;;;;1.38;0.20;;;24.60;70.80;;;;;;5024489;28;20059;-88
2022/07/02 11:09:57;;;;;;;2.25;0.20;;;24.70;70.50;;;;;;5031773;28;20481;-88
2022/07/02 11:12:40;;;;;;;3.63;0.10;;;24.80;70.20;;;;;;5024133;28;20528;-89
2022/07/02 11:15:20;;;;;;;1.27;0.20;;;24.80;70.30;;;;;;5028989;28;20021;-88
2022/07/02 11:17:50;;;;;;;2.40;0.28;;;24.90;70.50;;;;;;5026356;28;20396;-89
2022/07/02 11:20:24;;;;;;;2.15;0.22;;;24.80;71.00;;;;;;5028065;28;20074;-89
2022/07/02 11:22:49;;;;;;;1.75;0.20;;;24.80;70.40;;;;;;5028002;28;20519;-89
2022/07/02 11:25:15;;;;;;;1.77;0.28;;;24.70;69.70;;;;;;5028561;28;20120;-89
2022/07/02 11:27:41;;;;;;;3.00;0.30;;;24.70;70.00;;;;;;5032578;28;20120;-90
2022/07/02 11:30:07;;;;;;;1.70;0.17;;;24.80;70.00;;;;;;5031556;28;20140;-91
2022/07/02 11:32:37;;;;;;;1.75;0.15;;;24.80;70.20;;;;;;5028591;28;20120;-90
2022/07/02 11:35:02;;;;;;;2.15;0.15;;;24.90;70.10;;;;;;5025178;28;20075;-89
2022/07/02 11:37:28;;;;;;;2.22;0.15;;;25.00;69.20;;;;;;5026877;28;20053;-89
2022/07/02 11:39:54;;;;;;;2.45;0.20;;;25.20;68.60;;;;;;5023002;28;20825;-89
2022/07/02 11:42:35;;;;;;;1.70;0.20;;;25.50;67.10;;;;;;5027146;28;20044;-87
2022/07/02 11:45:00;;;;;;;1.40;0.38;;;25.70;66.60;;;;;;5025207;28;21625;-89
2022/07/02 11:47:26;;;;;;;0.95;0.10;;;25.80;66.10;;;;;;5028677;28;20115;-90
2022/07/02 11:49:51;;;;;;;1.23;0.10;;;25.70;65.20;;;;;;5028210;28;20530;-88
2022/07/02 11:52:18;;;;;;;1.42;0.25;;;25.60;64.90;;;;;;5028370;28;20063;-88
2022/07/02 11:54:43;;;;;;;2.17;0.20;;;25.70;65.20;;;;;;5047674;28;20074;-88
2022/07/02 11:57:09;;;;;;;1.10;0.10;;;25.60;64.50;;;;;;5033982;28;20040;-87
2022/07/02 11:59:35;;;;;;;1.92;0.52;;;25.60;65.50;;;;;;5033834;28;20163;-86
2022/07/02 12:02:00;;;;;;;1.83;0.10;;;25.90;65.80;;;;;;5031553;28;20033;-88
2022/07/02 12:04:26;;;;;;;1.55;0.15;;;26.10;63.60;;;;;;5033708;28;20092;-88
2022/07/02 12:06:53;;;;;;;0.77;0.10;;;26.20;62.70;;;;;;5032716;28;20029;-87
2022/07/02 12:09:24;;;;;;;2.35;0.20;;;26.20;62.80;;;;;;5033430;28;20077;-89
2022/07/02 12:11:51;;;;;;;1.00;0.20;;;26.20;62.10;;;;;;5029532;28;20393;-88
2022/07/02 12:14:24;;;;;;;0.80;0.10;;;26.10;62.10;;;;;;5025902;28;20037;-88
2022/07/02 12:16:51;;;;;;;0.55;0.08;;;26.20;63.20;;;;;;5026947;28;20416;-87
2022/07/02 12:19:17;;;;;;;2.33;0.10;;;26.40;62.90;;;;;;5045171;28;20021;-87
2022/07/02 12:21:46;;;;;;;2.50;0.10;;;26.70;61.70;;;;;;5041394;28;20044;-87
2022/07/02 12:24:29;;;;;;;0.80;0.10;;;26.80;62.10;;;;;;5025168;28;20029;-87
2022/07/02 12:27:03;;;;;;;2.05;0.10;;;26.70;61.10;;;;;;5025361;28;20489;-87
2022/07/02 12:29:53;;;;;;;1.38;0.13;;;26.70;61.00;;;;;;5042860;28;20390;-88
2022/07/02 12:32:31;;;;;;;2.00;0.10;;;26.80;60.30;;;;;;5020912;28;20017;-88
2022/07/02 12:35:08;;;;;;;1.25;0.10;;;26.70;59.60;;;;;;5023083;28;20401;-87
2022/07/02 12:37:47;;;;;;;1.13;0.10;;;26.60;60.10;;;;;;5024894;28;20048;-88
2022/07/02 12:40:18;;;;;;;1.50;0.32;;;26.60;60.30;;;;;;5025872;28;20421;-87
2022/07/02 12:43:01;;;;;;;1.02;0.10;;;26.50;60.30;;;;;;5026983;28;20041;-87
2022/07/02 12:45:35;;;;;;;0.88;0.20;;;26.50;60.50;;;;;;5028336;28;20634;-88
2022/07/02 12:48:06;;;;;;;0.80;0.10;;;26.50;60.30;;;;;;5025646;28;20033;-88
2022/07/02 12:50:40;;;;;;;1.38;0.00;;;26.50;59.20;;;;;;5028142;28;20065;-88